Lake Cherokee, Texas
Current Conditions -  °F | °C
As of 11:15 AM on Thursday 27 Nov 2014 (Local Time) from KRFI Reporting Station
Clear Clear  
Wind Chill: 55°   Ceiling: Unl
Heat Index: 55°   Visibility: 10mi
Dew Point: 26°   Wind: 5mph
Humidity: 33%   Direction: 50°NE
Pressure: 30.53"   Gusts: NA
Location:  32.1449°N, 94.7416°W
Report Text: KRFI 271715Z AUTO 05004KT 10SM CLR 13/M03 A3053 RMK AO2 T01251034
Loading
Personal Weather Stations






























Interactive Weather Map New forecast layout! Learn more

10-Day Weather Forecast

Advertisements
Track Severe Weather on mobile